createdAt,value
2023-03-20T00:00:58.294Z,-0.19
2023-03-20T00:02:01.084Z,-0.11
2023-03-20T00:03:03.409Z,-0.08
2023-03-20T00:04:06.122Z,-0.17
2023-03-20T00:05:17.900Z,-0.16
2023-03-20T00:06:25.643Z,-0.23
2023-03-20T00:07:27.694Z,-0.16
2023-03-20T00:08:29.819Z,-0.21
2023-03-20T00:09:32.058Z,-0.21
2023-03-20T00:11:53.579Z,-0.21
2023-03-20T00:12:58.189Z,-0.21
2023-03-20T00:14:03.371Z,-0.19
2023-03-20T00:15:09.298Z,-0.26
2023-03-20T00:16:11.955Z,-0.16
2023-03-20T00:17:17.723Z,-0.07
2023-03-20T00:18:22.572Z,-0.12
2023-03-20T00:19:28.057Z,-0.16
2023-03-20T00:20:31.703Z,-0.23
2023-03-20T00:21:33.784Z,-0.24
2023-03-20T00:22:35.789Z,-0.21
2023-03-20T00:23:37.672Z,-0.23
2023-03-20T00:24:40.681Z,-0.24
2023-03-20T00:26:01.369Z,-0.20
2023-03-20T00:27:03.842Z,-0.37
2023-03-20T00:28:29.333Z,-0.62
2023-03-20T00:29:32.619Z,-0.41
2023-03-20T00:30:34.784Z,-0.27
2023-03-20T00:31:38.822Z,-0.35
2023-03-20T00:32:41.497Z,-0.39
2023-03-20T00:33:44.062Z,-0.39
2023-03-20T00:34:45.948Z,-0.54
2023-03-20T00:35:49.053Z,-0.40
2023-03-20T00:36:52.731Z,-0.34
2023-03-20T00:37:57.248Z,-0.30
2023-03-20T00:38:59.196Z,-0.24
2023-03-20T00:40:01.196Z,-0.26
2023-03-20T00:41:07.034Z,-0.28
2023-03-20T00:42:12.742Z,-0.31
2023-03-20T00:43:14.804Z,-0.50
2023-03-20T00:44:23.426Z,-0.62
2023-03-20T00:45:28.647Z,-0.50
2023-03-20T00:46:34.606Z,-0.43
2023-03-20T00:47:38.528Z,-0.41
2023-03-20T00:48:41.972Z,-0.44
2023-03-20T00:49:45.929Z,-0.44
2023-03-20T00:50:48.051Z,-0.49
2023-03-20T00:51:49.956Z,-0.51
2023-03-20T00:52:52.797Z,-0.46
2023-03-20T00:53:54.692Z,-0.47
2023-03-20T00:54:56.757Z,-0.50
2023-03-20T00:56:00.966Z,-0.49
2023-03-20T00:57:06.719Z,-0.65
2023-03-20T00:58:10.911Z,-0.65
2023-03-20T00:59:19.443Z,-0.75
2023-03-20T01:00:35.571Z,-0.71
2023-03-20T01:01:37.712Z,-0.69
2023-03-20T01:02:39.699Z,-0.69
2023-03-20T01:03:42.925Z,-0.67
2023-03-20T01:04:45.534Z,-0.63
2023-03-20T01:05:49.753Z,-0.60
2023-03-20T01:06:52.635Z,-0.60
2023-03-20T01:07:55.298Z,-0.61
2023-03-20T01:08:57.188Z,-0.63
2023-03-20T01:10:00.852Z,-0.63
2023-03-20T01:11:03.276Z,-0.67
2023-03-20T01:12:06.406Z,-0.66
2023-03-20T01:13:28.581Z,-0.66
2023-03-20T01:14:32.119Z,-0.63
2023-03-20T01:15:35.516Z,-0.60
2023-03-20T01:16:38.050Z,-0.60
2023-03-20T01:17:40.192Z,-0.61
2023-03-20T01:18:43.390Z,-0.58
2023-03-20T01:19:45.802Z,-0.59
2023-03-20T01:20:49.822Z,-0.62
2023-03-20T01:21:52.825Z,-0.66
2023-03-20T01:22:54.967Z,-0.67
2023-03-20T01:23:58.377Z,-0.77
2023-03-20T01:25:00.308Z,-0.77
2023-03-20T01:26:04.213Z,-0.73
2023-03-20T01:27:15.848Z,-0.70
2023-03-20T01:28:21.280Z,-0.65
2023-03-20T01:29:25.882Z,-0.69
2023-03-20T01:30:30.839Z,-0.69
2023-03-20T01:31:33.250Z,-0.75
2023-03-20T01:32:35.634Z,-0.72
2023-03-20T01:33:37.810Z,-0.70
2023-03-20T01:34:39.700Z,-0.67
2023-03-20T01:35:42.461Z,-0.64
2023-03-20T01:36:52.148Z,-0.63
2023-03-20T01:37:55.385Z,-0.69
2023-03-20T01:38:58.371Z,-0.71
2023-03-20T01:40:00.404Z,-0.70
2023-03-20T01:41:15.487Z,-0.68
2023-03-20T01:42:17.866Z,-0.65
2023-03-20T01:43:21.952Z,-0.59
2023-03-20T01:44:30.580Z,-0.62
2023-03-20T01:45:35.901Z,-0.59
2023-03-20T01:46:39.552Z,-0.53
2023-03-20T01:47:42.242Z,-0.60
2023-03-20T01:48:54.115Z,-0.60
2023-03-20T01:50:25.853Z,-0.64
2023-03-20T01:51:30.330Z,-0.63
2023-03-20T01:52:32.466Z,-0.64
2023-03-20T01:53:34.814Z,-0.61
2023-03-20T01:54:39.150Z,-0.60
2023-03-20T01:55:43.322Z,-0.62
2023-03-20T01:56:49.423Z,-0.61
2023-03-20T01:57:53.859Z,-0.60
2023-03-20T01:58:59.552Z,-0.61
2023-03-20T02:00:05.263Z,-0.59
2023-03-20T02:01:09.766Z,-0.59
2023-03-20T02:02:15.541Z,-0.78
2023-03-20T02:03:18.638Z,-0.80
2023-03-20T02:04:24.447Z,-0.78
2023-03-20T02:05:27.279Z,-0.80
2023-03-20T02:06:30.034Z,-0.78
2023-03-20T02:07:34.426Z,-0.72
2023-03-20T02:09:50.421Z,-0.71
2023-03-20T02:10:54.126Z,-0.71
2023-03-20T02:11:58.360Z,-0.68
2023-03-20T02:13:02.658Z,-0.72
2023-03-20T02:14:06.109Z,-0.67
2023-03-20T02:15:10.502Z,-0.63
2023-03-20T02:16:15.427Z,-0.62
2023-03-20T02:17:17.935Z,-0.66
2023-03-20T02:18:19.977Z,-0.66
2023-03-20T02:19:44.171Z,-0.70
2023-03-20T02:21:08.304Z,-0.69
2023-03-20T02:22:32.625Z,-0.68
2023-03-20T02:24:12.103Z,-0.68
2023-03-20T02:25:43.984Z,-0.72
2023-03-20T02:27:03.200Z,-0.69
2023-03-20T02:28:14.739Z,-0.79
2023-03-20T02:29:18.393Z,-0.85
2023-03-20T02:30:41.345Z,-0.78
2023-03-20T02:31:56.183Z,-0.76
2023-03-20T02:33:18.544Z,-0.76
2023-03-20T02:34:57.961Z,-0.76
2023-03-20T02:36:21.051Z,-0.79
2023-03-20T02:37:33.631Z,-0.83
2023-03-20T02:38:54.529Z,-0.84
2023-03-20T02:40:33.571Z,-0.87
2023-03-20T02:41:51.182Z,-0.89
2023-03-20T02:43:06.031Z,-0.86
2023-03-20T02:44:26.437Z,-0.88
2023-03-20T02:45:38.126Z,-0.84
2023-03-20T02:47:12.346Z,-0.82
2023-03-20T02:48:41.345Z,-0.74
2023-03-20T02:50:01.739Z,-0.88
2023-03-20T02:51:10.432Z,-0.95
2023-03-20T02:52:16.195Z,-1.08
2023-03-20T02:53:25.031Z,-1.08
2023-03-20T02:54:43.105Z,-1.10
2023-03-20T02:56:08.430Z,-1.12
2023-03-20T02:57:14.376Z,-1.15
2023-03-20T02:59:37.162Z,-1.22
2023-03-20T03:00:48.804Z,-1.21
2023-03-20T03:01:54.730Z,-1.18
2023-03-20T03:03:06.297Z,-1.19
2023-03-20T03:04:10.266Z,-1.16
2023-03-20T03:05:18.645Z,-1.14
2023-03-20T03:06:31.848Z,-1.15
2023-03-20T03:07:36.273Z,-1.12
2023-03-20T03:08:41.954Z,-1.10
2023-03-20T03:09:47.792Z,-1.14
2023-03-20T03:10:56.764Z,-1.20
2023-03-20T03:12:02.538Z,-1.17
2023-03-20T03:13:07.738Z,-1.13
2023-03-20T03:14:13.528Z,-1.19
2023-03-20T03:15:30.837Z,-1.11
2023-03-20T03:16:36.740Z,-1.10
2023-03-20T03:17:43.536Z,-1.09
2023-03-20T03:18:48.249Z,-1.11
2023-03-20T03:19:53.438Z,-1.06
2023-03-20T03:21:02.082Z,-1.13
2023-03-20T03:22:05.712Z,-1.25
2023-03-20T03:23:12.603Z,-1.25
2023-03-20T03:24:40.233Z,-1.32
2023-03-20T03:25:40.098Z,-1.40
2023-03-20T03:26:43.016Z,-1.39
2023-03-20T03:27:52.367Z,-1.43
2023-03-20T03:29:00.765Z,-1.39
2023-03-20T03:30:06.658Z,-1.39
2023-03-20T03:31:15.366Z,-1.33
2023-03-20T03:32:45.452Z,-1.33
2023-03-20T03:33:51.185Z,-1.40
2023-03-20T03:34:53.904Z,-1.39
2023-03-20T03:35:59.580Z,-1.42
2023-03-20T03:37:11.825Z,-1.45
2023-03-20T03:38:23.561Z,-1.42
2023-03-20T03:39:32.376Z,-1.42
2023-03-20T03:41:04.135Z,-1.48
2023-03-20T03:42:27.583Z,-1.42
2023-03-20T03:43:51.630Z,-1.45
2023-03-20T03:45:00.229Z,-1.44
2023-03-20T03:46:06.230Z,-1.51
2023-03-20T03:47:18.239Z,-1.49
2023-03-20T03:48:23.985Z,-1.48
2023-03-20T03:49:29.782Z,-1.48
2023-03-20T03:50:38.277Z,-1.41
2023-03-20T03:51:43.969Z,-1.44
2023-03-20T03:52:48.812Z,-1.41
2023-03-20T03:53:57.580Z,-1.42
2023-03-20T03:55:12.080Z,-1.42
2023-03-20T03:56:18.078Z,-1.40
2023-03-20T03:57:23.910Z,-1.39
2023-03-20T03:58:33.328Z,-1.40
2023-03-20T03:59:41.915Z,-1.60
2023-03-20T04:00:47.832Z,-1.52
2023-03-20T04:01:51.952Z,-1.52
2023-03-20T04:02:57.055Z,-1.56
2023-03-20T04:04:04.872Z,-1.45
2023-03-20T04:05:08.870Z,-1.43
2023-03-20T04:06:11.870Z,-1.37
2023-03-20T04:07:15.021Z,-1.27
2023-03-20T04:08:17.194Z,-1.33
2023-03-20T04:09:21.369Z,-1.31
2023-03-20T04:10:24.317Z,-1.43
2023-03-20T04:11:28.299Z,-1.37
2023-03-20T04:12:36.394Z,-1.47
2023-03-20T04:13:38.461Z,-1.42
2023-03-20T04:14:40.362Z,-1.45
2023-03-20T04:15:43.617Z,-1.38
2023-03-20T04:16:47.535Z,-1.36
2023-03-20T04:17:49.679Z,-1.43
2023-03-20T04:18:53.030Z,-1.29
2023-03-20T04:19:55.378Z,-1.24
2023-03-20T04:20:57.875Z,-1.24
2023-03-20T04:21:59.802Z,-1.26
2023-03-20T04:23:01.811Z,-1.32
2023-03-20T04:24:04.594Z,-1.43
2023-03-20T04:25:10.537Z,-1.29
2023-03-20T04:26:13.382Z,-1.43
2023-03-20T04:27:15.364Z,-1.36
2023-03-20T04:28:17.245Z,-1.28
2023-03-20T04:29:19.252Z,-1.27
2023-03-20T04:30:21.462Z,-1.13
2023-03-20T04:31:23.589Z,-1.24
2023-03-20T04:32:25.732Z,-1.43
2023-03-20T04:33:28.524Z,-1.36
2023-03-20T04:34:30.416Z,-1.29
2023-03-20T04:35:32.349Z,-1.25
2023-03-20T04:36:34.856Z,-1.20
2023-03-20T04:37:37.014Z,-1.17
2023-03-20T04:38:38.991Z,-1.19
2023-03-20T04:39:40.877Z,-1.35
2023-03-20T04:40:44.399Z,-1.17
2023-03-20T04:41:49.466Z,-1.09
2023-03-20T04:42:51.548Z,-1.02
2023-03-20T04:43:55.465Z,-0.94
2023-03-20T04:44:57.582Z,-0.93
2023-03-20T04:46:00.658Z,-0.96
2023-03-20T04:47:03.990Z,-1.01
2023-03-20T04:48:06.990Z,-1.01
2023-03-20T04:49:09.002Z,-0.98
2023-03-20T04:50:11.454Z,-0.96
2023-03-20T04:51:13.512Z,-0.96
2023-03-20T04:52:15.695Z,-0.91
2023-03-20T04:53:21.002Z,-0.91
2023-03-20T04:54:23.504Z,-0.90
2023-03-20T04:55:25.546Z,-0.89
2023-03-20T04:56:27.988Z,-0.85
2023-03-20T04:57:30.000Z,-0.78
2023-03-20T04:58:31.887Z,-0.71
2023-03-20T04:59:33.910Z,-0.69
2023-03-20T05:00:38.325Z,-0.71
2023-03-20T05:01:40.252Z,-0.67
2023-03-20T05:02:43.756Z,-0.61
2023-03-20T05:03:45.979Z,-0.49
2023-03-20T05:04:48.008Z,-0.51
2023-03-20T05:05:50.233Z,-0.46
2023-03-20T05:06:52.681Z,-0.42
2023-03-20T05:07:58.097Z,-0.46
2023-03-20T05:09:00.493Z,-0.32
2023-03-20T05:10:05.942Z,-0.20
2023-03-20T05:11:08.221Z,-0.24
2023-03-20T05:12:10.575Z,-0.23
2023-03-20T05:13:12.853Z,-0.24
2023-03-20T05:14:14.887Z,-0.21
2023-03-20T05:15:17.693Z,-0.16
2023-03-20T05:16:20.236Z,-0.15
2023-03-20T05:17:25.481Z,-0.11
2023-03-20T05:18:27.864Z,-0.10
2023-03-20T05:19:31.131Z,-0.05
2023-03-20T05:20:35.488Z,-0.26
2023-03-20T05:21:37.608Z,0.01
2023-03-20T05:22:39.560Z,0.09
2023-03-20T05:23:41.556Z,0.13
2023-03-20T05:24:43.671Z,0.14
2023-03-20T05:25:45.678Z,0.21
2023-03-20T05:26:48.110Z,0.25
2023-03-20T05:27:50.224Z,0.26
2023-03-20T05:28:52.347Z,0.24
2023-03-20T05:29:54.495Z,0.31
2023-03-20T05:30:56.895Z,0.35
2023-03-20T05:32:00.224Z,0.38
2023-03-20T05:33:02.315Z,0.38
2023-03-20T05:34:05.053Z,0.35
2023-03-20T05:35:08.034Z,0.33
2023-03-20T05:36:10.177Z,0.28
2023-03-20T05:37:12.119Z,0.29
2023-03-20T05:38:14.149Z,0.30
2023-03-20T05:39:16.270Z,0.37
2023-03-20T05:40:18.804Z,0.42
2023-03-20T05:41:20.799Z,0.53
2023-03-20T05:42:22.680Z,0.62
2023-03-20T05:43:25.095Z,0.75
2023-03-20T05:44:27.249Z,0.82
2023-03-20T05:45:29.976Z,0.87
2023-03-20T05:46:31.999Z,0.96
2023-03-20T05:47:34.194Z,0.97
2023-03-20T05:48:36.082Z,1.08
2023-03-20T05:49:38.083Z,1.08
2023-03-20T05:50:40.766Z,1.09
2023-03-20T05:51:42.658Z,1.12
2023-03-20T05:52:48.623Z,1.18
2023-03-20T05:53:50.684Z,1.27
2023-03-20T05:54:52.744Z,1.32
2023-03-20T05:55:54.677Z,1.50
2023-03-20T05:56:59.007Z,1.60
2023-03-20T05:58:02.751Z,1.75
2023-03-20T05:59:06.925Z,1.84
2023-03-20T06:00:11.041Z,1.95
2023-03-20T06:01:13.080Z,2.06
2023-03-20T06:02:15.777Z,2.26
2023-03-20T06:03:18.270Z,2.40
2023-03-20T06:04:20.307Z,2.55
2023-03-20T06:05:22.203Z,2.73
2023-03-20T06:06:24.614Z,2.86
2023-03-20T06:07:26.546Z,2.99
2023-03-20T06:08:28.517Z,3.23
2023-03-20T06:09:30.391Z,3.32
2023-03-20T06:10:32.718Z,3.55
2023-03-20T06:11:37.371Z,3.65
2023-03-20T06:12:38.665Z,3.78
2023-03-20T06:13:44.467Z,3.97
2023-03-20T06:14:46.386Z,4.07
2023-03-20T06:15:48.415Z,4.25
2023-03-20T06:16:52.515Z,4.28
2023-03-20T06:17:55.638Z,4.37
2023-03-20T06:18:57.554Z,4.47
2023-03-20T06:19:59.559Z,4.53
2023-03-20T06:21:01.572Z,4.59
2023-03-20T06:22:04.133Z,4.66
2023-03-20T06:23:06.838Z,4.84
2023-03-20T06:24:08.795Z,4.97
2023-03-20T06:25:10.693Z,5.04
2023-03-20T06:26:12.805Z,5.18
2023-03-20T06:27:15.018Z,5.25
2023-03-20T06:28:17.072Z,5.41
2023-03-20T06:29:19.014Z,5.45
2023-03-20T06:30:21.068Z,5.57
2023-03-20T06:31:25.624Z,5.63
2023-03-20T06:32:27.606Z,5.65
2023-03-20T06:33:29.494Z,5.78
2023-03-20T06:34:31.566Z,5.86
2023-03-20T06:35:33.790Z,5.91
2023-03-20T06:36:36.893Z,6.06
2023-03-20T06:37:39.328Z,6.14
2023-03-20T06:38:41.351Z,6.23
2023-03-20T06:39:43.686Z,6.23
2023-03-20T06:40:46.070Z,6.33
2023-03-20T06:41:47.965Z,6.34
2023-03-20T06:42:50.006Z,6.35
2023-03-20T06:43:52.270Z,6.48
2023-03-20T06:44:54.454Z,6.60
2023-03-20T06:45:56.478Z,6.63
2023-03-20T06:46:58.787Z,6.76
2023-03-20T06:48:00.859Z,6.87
2023-03-20T06:49:04.305Z,6.50
2023-03-20T06:50:09.147Z,6.82
2023-03-20T06:51:11.109Z,7.02
2023-03-20T06:52:18.751Z,7.12
2023-03-20T06:53:21.688Z,7.28
2023-03-20T06:54:23.599Z,7.36
2023-03-20T06:55:25.623Z,7.45
2023-03-20T06:56:27.641Z,7.36
2023-03-20T06:57:30.988Z,7.23
2023-03-20T06:58:35.037Z,7.48
2023-03-20T06:59:37.128Z,7.63
2023-03-20T07:00:39.246Z,7.78
2023-03-20T07:01:42.036Z,7.89
2023-03-20T07:02:44.124Z,8.06
2023-03-20T07:03:47.062Z,8.03
2023-03-20T07:04:50.174Z,7.98
2023-03-20T07:05:52.211Z,8.08
2023-03-20T07:06:54.981Z,8.00
2023-03-20T07:07:58.294Z,7.87
2023-03-20T07:09:01.075Z,7.94
2023-03-20T07:10:04.626Z,7.94
2023-03-20T07:11:07.388Z,7.80
2023-03-20T07:12:13.128Z,7.87
2023-03-20T07:13:15.085Z,7.95
2023-03-20T07:14:37.791Z,8.00
2023-03-20T07:15:43.880Z,7.99
2023-03-20T07:16:43.888Z,8.07
2023-03-20T07:17:46.635Z,7.92
2023-03-20T07:18:48.784Z,8.12
2023-03-20T07:19:50.803Z,8.20
2023-03-20T07:20:55.493Z,8.15
2023-03-20T07:21:59.992Z,8.30
2023-03-20T07:23:02.166Z,8.47
2023-03-20T07:24:04.348Z,8.44
2023-03-20T07:25:08.062Z,8.59
2023-03-20T07:26:11.949Z,7.64
2023-03-20T07:27:14.676Z,7.58
2023-03-20T07:28:16.850Z,8.64
2023-03-20T07:29:18.729Z,8.64
2023-03-20T07:30:20.849Z,8.84
2023-03-20T07:31:25.748Z,8.50
2023-03-20T07:32:27.734Z,8.93
2023-03-20T07:33:29.808Z,9.11
2023-03-20T07:34:31.704Z,9.26
2023-03-20T07:35:33.974Z,9.37
2023-03-20T07:36:36.255Z,9.26
2023-03-20T07:37:39.495Z,9.40
2023-03-20T07:38:41.627Z,9.54
2023-03-20T07:39:43.715Z,9.47
2023-03-20T07:40:46.040Z,9.51
2023-03-20T07:41:48.243Z,9.64
2023-03-20T07:42:50.233Z,9.64
2023-03-20T07:43:52.597Z,9.63
2023-03-20T07:44:54.554Z,9.68
2023-03-20T07:45:56.679Z,9.75
2023-03-20T07:46:58.949Z,9.72
2023-03-20T07:48:02.064Z,9.76
2023-03-20T07:49:04.111Z,9.87
2023-03-20T07:50:08.294Z,9.76
2023-03-20T07:51:10.982Z,9.76
2023-03-20T07:52:13.426Z,9.83
2023-03-20T07:53:15.478Z,9.74
2023-03-20T07:54:17.905Z,9.68
2023-03-20T07:55:20.084Z,9.60
2023-03-20T07:56:22.238Z,9.72
2023-03-20T07:57:24.131Z,9.73
2023-03-20T07:58:26.135Z,9.76
2023-03-20T07:59:28.011Z,9.84
2023-03-20T08:00:30.332Z,9.88
2023-03-20T08:01:33.065Z,9.92
2023-03-20T08:02:35.096Z,9.98
2023-03-20T08:03:37.219Z,10.04
2023-03-20T08:04:40.288Z,10.12
2023-03-20T08:05:45.834Z,10.09
2023-03-20T08:06:47.342Z,10.11
2023-03-20T08:07:49.549Z,10.04
2023-03-20T08:08:52.041Z,10.07
2023-03-20T08:09:54.598Z,10.20
2023-03-20T08:10:56.806Z,10.13
2023-03-20T08:11:58.715Z,10.11
2023-03-20T08:13:00.822Z,10.25
2023-03-20T08:14:02.800Z,10.24
2023-03-20T08:15:06.503Z,10.21
2023-03-20T08:16:10.159Z,10.25
2023-03-20T08:17:16.070Z,10.30
2023-03-20T08:18:16.902Z,10.21
2023-03-20T08:19:19.018Z,10.05
2023-03-20T08:20:21.002Z,10.03
2023-03-20T08:21:23.175Z,10.03
2023-03-20T08:22:26.166Z,9.99
2023-03-20T08:23:28.371Z,10.17
2023-03-20T08:24:31.858Z,10.16
2023-03-20T08:25:35.242Z,10.00
2023-03-20T08:26:37.672Z,10.02
2023-03-20T08:27:41.192Z,9.98
2023-03-20T08:28:48.389Z,10.12
2023-03-20T08:29:47.271Z,10.13
2023-03-20T08:30:49.687Z,10.09
2023-03-20T08:31:52.062Z,10.16
2023-03-20T08:32:54.143Z,10.02
2023-03-20T08:33:56.459Z,9.89
2023-03-20T08:34:58.424Z,9.81
2023-03-20T08:36:00.487Z,9.90
2023-03-20T08:37:04.264Z,9.90
2023-03-20T08:38:06.340Z,9.97
2023-03-20T08:39:08.715Z,10.05
2023-03-20T08:40:12.332Z,9.87
2023-03-20T08:41:14.946Z,10.11
2023-03-20T08:42:17.915Z,10.06
2023-03-20T08:43:20.771Z,9.98
2023-03-20T08:44:23.206Z,10.01
2023-03-20T08:45:25.466Z,10.07
2023-03-20T08:46:28.253Z,10.14
2023-03-20T08:47:30.965Z,10.02
2023-03-20T08:48:34.990Z,10.11
2023-03-20T08:49:37.263Z,10.11
2023-03-20T08:50:39.475Z,10.08
2023-03-20T08:51:41.474Z,10.18
2023-03-20T08:52:44.593Z,10.13
2023-03-20T08:53:46.923Z,10.18
2023-03-20T08:54:48.929Z,9.91
2023-03-20T08:55:51.913Z,9.58
2023-03-20T08:56:54.477Z,9.77
2023-03-20T08:57:56.642Z,9.71
2023-03-20T08:58:59.102Z,9.82
2023-03-20T09:00:01.231Z,9.79
2023-03-20T09:01:05.595Z,9.84
2023-03-20T09:02:10.307Z,9.87
2023-03-20T09:03:18.003Z,9.89
2023-03-20T09:04:20.171Z,9.64
2023-03-20T09:05:22.157Z,9.69
2023-03-20T09:06:24.275Z,9.70
2023-03-20T09:07:26.398Z,9.79
2023-03-20T09:08:28.449Z,9.76
2023-03-20T09:09:30.636Z,9.83
2023-03-20T09:10:32.993Z,9.86
2023-03-20T09:11:37.652Z,9.74
2023-03-20T09:12:39.731Z,9.73
2023-03-20T09:13:42.083Z,9.81
2023-03-20T09:14:44.844Z,9.63
2023-03-20T09:15:48.088Z,9.91
2023-03-20T09:16:51.661Z,9.99
2023-03-20T09:17:53.928Z,9.87
2023-03-20T09:18:55.975Z,10.02
2023-03-20T09:20:01.906Z,9.93
2023-03-20T09:21:04.758Z,9.96
2023-03-20T09:22:06.864Z,9.89
2023-03-20T09:23:09.214Z,9.99
2023-03-20T09:24:11.897Z,9.87
2023-03-20T09:25:14.588Z,9.97
2023-03-20T09:26:16.984Z,10.10
2023-03-20T09:27:19.854Z,10.19
2023-03-20T09:28:21.940Z,9.96
2023-03-20T09:29:24.367Z,9.87
2023-03-20T09:30:26.695Z,9.73
2023-03-20T09:31:28.903Z,9.71
2023-03-20T09:32:31.001Z,9.77
2023-03-20T09:33:33.283Z,9.73
2023-03-20T09:34:35.233Z,9.71
2023-03-20T09:35:38.802Z,9.66
2023-03-20T09:36:41.122Z,9.64
2023-03-20T09:37:43.474Z,9.69
2023-03-20T09:38:45.359Z,9.73
2023-03-20T09:39:48.239Z,9.81
2023-03-20T09:41:02.127Z,9.88
2023-03-20T09:43:26.967Z,9.99
2023-03-20T09:44:36.193Z,9.92
2023-03-20T09:45:46.199Z,9.94
2023-03-20T09:47:18.915Z,9.83
2023-03-20T09:48:14.848Z,9.77
2023-03-20T09:49:23.639Z,9.90
2023-03-20T09:50:36.057Z,10.10
2023-03-20T09:51:48.510Z,10.06
2023-03-20T09:53:12.196Z,10.12
2023-03-20T09:54:27.093Z,10.04
2023-03-20T09:55:40.965Z,10.07
2023-03-20T09:56:43.394Z,10.00
2023-03-20T09:57:52.724Z,10.02
2023-03-20T09:59:00.996Z,10.02
2023-03-20T10:00:07.431Z,10.07
2023-03-20T10:01:13.053Z,10.17
2023-03-20T10:02:19.236Z,10.16
2023-03-20T10:03:42.212Z,10.11
2023-03-20T10:04:49.317Z,10.02
2023-03-20T10:06:00.937Z,10.08
2023-03-20T10:07:05.218Z,9.98
2023-03-20T10:08:15.027Z,9.83
2023-03-20T10:09:28.571Z,9.81
2023-03-20T10:10:41.144Z,9.85
2023-03-20T10:12:05.919Z,9.93
2023-03-20T10:13:32.363Z,9.99
2023-03-20T10:14:54.791Z,10.07
2023-03-20T10:16:15.111Z,9.93
2023-03-20T10:17:29.848Z,9.74
2023-03-20T10:18:35.548Z,9.89
2023-03-20T10:19:57.403Z,9.96
2023-03-20T10:21:12.201Z,9.97
2023-03-20T10:22:21.189Z,9.92
2023-03-20T10:23:27.172Z,9.89
2023-03-20T10:24:51.240Z,9.88
2023-03-20T10:25:59.883Z,9.99
2023-03-20T10:27:08.303Z,10.06
2023-03-20T10:28:26.008Z,10.07
2023-03-20T10:29:41.629Z,10.09
2023-03-20T10:31:08.778Z,10.00
2023-03-20T10:33:39.409Z,10.23
2023-03-20T10:35:08.864Z,10.23
2023-03-20T10:36:45.411Z,10.05
2023-03-20T10:39:05.076Z,10.15
2023-03-20T10:40:29.230Z,10.24
2023-03-20T10:41:35.014Z,10.32
2023-03-20T10:42:40.739Z,10.25
2023-03-20T10:43:45.177Z,10.25
2023-03-20T10:44:50.985Z,10.35
2023-03-20T10:46:03.041Z,10.47
2023-03-20T10:47:08.849Z,10.47
2023-03-20T10:48:26.992Z,10.49
2023-03-20T10:49:38.566Z,10.52
2023-03-20T10:50:47.547Z,10.31
2023-03-20T10:51:55.620Z,10.40
2023-03-20T10:53:00.137Z,10.38
2023-03-20T10:54:05.916Z,10.33
2023-03-20T10:56:41.286Z,10.41
2023-03-20T10:57:52.863Z,10.38
2023-03-20T10:58:56.599Z,10.53
2023-03-20T10:59:59.254Z,10.54
2023-03-20T11:01:01.484Z,10.51
2023-03-20T11:02:12.234Z,10.53
2023-03-20T11:04:27.357Z,10.33
2023-03-20T11:05:32.743Z,10.36
2023-03-20T11:06:38.869Z,10.56
2023-03-20T11:07:42.167Z,10.63
2023-03-20T11:08:48.165Z,10.65
2023-03-20T11:10:09.054Z,10.71
2023-03-20T11:11:11.196Z,10.68
2023-03-20T11:12:19.412Z,10.73
2023-03-20T11:13:36.292Z,10.78
2023-03-20T11:14:39.175Z,10.69
2023-03-20T11:15:41.297Z,10.53
2023-03-20T11:16:50.303Z,10.37
2023-03-20T11:18:05.453Z,10.45
2023-03-20T11:19:11.057Z,10.49
2023-03-20T11:20:14.493Z,10.61
2023-03-20T11:21:20.278Z,10.62
2023-03-20T11:22:25.366Z,10.54
2023-03-20T11:23:35.649Z,10.66
2023-03-20T11:24:41.128Z,10.69
2023-03-20T11:25:57.996Z,10.71
2023-03-20T11:27:15.450Z,10.76
2023-03-20T11:28:27.488Z,10.79
2023-03-20T11:29:31.898Z,10.78
2023-03-20T11:30:37.980Z,10.72
2023-03-20T11:31:41.578Z,10.54
2023-03-20T11:32:49.468Z,10.57
2023-03-20T11:34:16.634Z,10.74
2023-03-20T11:35:29.030Z,10.71
2023-03-20T11:36:33.112Z,10.71
2023-03-20T11:37:35.962Z,10.80
2023-03-20T11:38:45.511Z,10.84
2023-03-20T11:40:03.532Z,11.02
2023-03-20T11:41:09.265Z,11.00
2023-03-20T11:42:26.290Z,10.86
2023-03-20T11:43:28.444Z,10.77
2023-03-20T11:44:35.418Z,10.88
2023-03-20T11:45:44.316Z,10.99
2023-03-20T11:46:59.575Z,11.10
2023-03-20T11:48:04.044Z,11.03
2023-03-20T11:49:19.040Z,10.86
2023-03-20T11:50:33.675Z,10.87
2023-03-20T11:51:36.822Z,11.06
2023-03-20T11:52:39.992Z,11.09
2023-03-20T11:53:48.579Z,11.10
2023-03-20T11:54:54.207Z,11.07
2023-03-20T11:56:06.165Z,11.11
2023-03-20T11:57:11.955Z,11.11
2023-03-20T11:58:16.686Z,11.13
2023-03-20T11:59:22.886Z,11.21
2023-03-20T12:00:31.813Z,11.18
2023-03-20T12:01:43.048Z,11.16
2023-03-20T12:02:45.305Z,11.25
2023-03-20T12:04:11.069Z,11.27
2023-03-20T12:05:35.340Z,11.20
2023-03-20T12:06:44.316Z,11.12
2023-03-20T12:07:51.257Z,11.18
2023-03-20T12:09:02.769Z,11.22
2023-03-20T12:10:07.865Z,11.22
2023-03-20T12:11:22.456Z,11.17
2023-03-20T12:12:43.478Z,11.15
2023-03-20T12:13:48.878Z,11.16
2023-03-20T12:15:06.916Z,11.16
2023-03-20T12:17:49.470Z,11.06
2023-03-20T12:19:07.010Z,10.99
2023-03-20T12:20:42.291Z,11.10
2023-03-20T12:21:48.531Z,11.27
2023-03-20T12:23:11.936Z,11.29
2023-03-20T12:25:50.732Z,11.43
2023-03-20T12:27:02.416Z,11.38
2023-03-20T12:28:23.556Z,11.29
2023-03-20T12:29:31.860Z,11.27
2023-03-20T12:31:10.656Z,11.06
2023-03-20T12:32:16.498Z,10.91
2023-03-20T12:33:28.144Z,11.10
2023-03-20T12:34:36.771Z,11.22
2023-03-20T12:35:42.524Z,11.28
2023-03-20T12:36:48.012Z,11.37
2023-03-20T12:37:51.877Z,11.43
2023-03-20T12:38:54.837Z,11.34
2023-03-20T12:40:00.528Z,11.41
2023-03-20T12:41:24.469Z,11.50
2023-03-20T12:42:35.750Z,11.54
2023-03-20T12:43:44.481Z,11.51
2023-03-20T12:44:56.103Z,11.46
2023-03-20T12:46:08.229Z,11.50
2023-03-20T12:47:19.772Z,11.34
2023-03-20T12:48:40.949Z,11.37
2023-03-20T12:50:08.290Z,11.30
2023-03-20T12:51:39.760Z,11.28
2023-03-20T12:52:57.570Z,11.19
2023-03-20T12:58:22.156Z,11.43
2023-03-20T13:00:01.748Z,11.49
2023-03-20T13:01:10.470Z,11.38
2023-03-20T13:02:22.628Z,11.50
2023-03-20T13:03:43.631Z,11.50
2023-03-20T13:04:55.415Z,11.44
2023-03-20T13:06:16.383Z,11.52
2023-03-20T13:08:38.534Z,11.43
2023-03-20T13:10:01.291Z,11.40
2023-03-20T13:11:17.180Z,11.42
2023-03-20T13:12:41.420Z,11.50
2023-03-20T13:13:48.192Z,11.58
2023-03-20T13:15:14.632Z,11.28
2023-03-20T13:17:39.442Z,11.53
2023-03-20T13:18:54.311Z,11.38
2023-03-20T13:20:00.124Z,11.36
2023-03-20T13:21:06.042Z,11.43
2023-03-20T13:22:20.946Z,11.23
2023-03-20T13:23:26.716Z,11.32
2023-03-20T13:24:53.003Z,11.43
2023-03-20T13:26:01.998Z,11.45
2023-03-20T13:27:34.412Z,11.29
2023-03-20T13:28:49.807Z,11.27
2023-03-20T13:30:26.239Z,11.27
2023-03-20T13:31:40.898Z,11.10
2023-03-20T13:33:20.608Z,11.08
2023-03-20T13:34:44.661Z,11.15
2023-03-20T13:36:11.702Z,10.90
2023-03-20T13:37:38.655Z,11.13
2023-03-20T13:38:44.447Z,11.21
2023-03-20T13:40:07.043Z,11.23
2023-03-20T13:41:10.271Z,11.23
2023-03-20T13:42:16.172Z,11.03
2023-03-20T13:43:26.220Z,11.06
2023-03-20T13:44:31.603Z,11.10
2023-03-20T13:45:42.049Z,10.97
2023-03-20T13:48:01.488Z,11.22
2023-03-20T13:49:27.282Z,11.06
2023-03-20T13:50:33.529Z,11.13
2023-03-20T13:51:42.448Z,11.18
2023-03-20T13:52:51.788Z,11.25
2023-03-20T13:54:14.322Z,11.16
2023-03-20T13:55:25.544Z,11.07
2023-03-20T13:56:32.185Z,11.07
2023-03-20T13:57:41.313Z,11.12
2023-03-20T13:58:47.201Z,11.05
2023-03-20T14:00:17.461Z,11.08
2023-03-20T14:01:26.765Z,11.02
2023-03-20T14:02:48.698Z,11.07
2023-03-20T14:03:52.697Z,11.06
2023-03-20T14:05:01.706Z,11.04
2023-03-20T14:06:32.428Z,10.99
2023-03-20T14:07:37.525Z,11.03
2023-03-20T14:08:43.286Z,10.98
2023-03-20T14:09:45.662Z,10.99
2023-03-20T14:10:50.080Z,10.91
2023-03-20T14:11:55.438Z,10.90
2023-03-20T14:14:16.784Z,11.03
2023-03-20T14:15:21.121Z,10.98
2023-03-20T14:16:25.618Z,10.94
2023-03-20T14:17:30.122Z,10.94
2023-03-20T14:18:32.453Z,10.88
2023-03-20T14:19:37.912Z,10.79
2023-03-20T14:20:42.909Z,10.75
2023-03-20T14:21:48.114Z,10.73
2023-03-20T14:22:50.779Z,10.81
2023-03-20T14:24:05.419Z,10.81
2023-03-20T14:25:11.449Z,10.82
2023-03-20T14:26:20.344Z,10.72
2023-03-20T14:27:42.918Z,10.79
2023-03-20T14:28:30.937Z,10.76
2023-03-20T14:29:38.262Z,10.61
2023-03-20T14:30:43.854Z,10.81
2023-03-20T14:31:50.091Z,10.82
2023-03-20T14:32:55.879Z,10.81
2023-03-20T14:34:01.607Z,10.82
2023-03-20T14:35:22.603Z,10.88
2023-03-20T14:36:29.637Z,10.84
2023-03-20T14:38:09.325Z,10.89
2023-03-20T14:39:22.160Z,10.86
2023-03-20T14:40:28.094Z,10.77
2023-03-20T14:41:36.839Z,10.78
2023-03-20T14:42:51.338Z,10.79
2023-03-20T14:44:27.823Z,10.75
2023-03-20T14:45:39.854Z,10.83
2023-03-20T14:46:55.221Z,10.70
2023-03-20T14:48:23.587Z,10.78
2023-03-20T14:49:44.382Z,10.71
2023-03-20T14:50:49.109Z,10.72
2023-03-20T14:51:54.350Z,10.70
2023-03-20T14:53:14.751Z,10.72
2023-03-20T14:55:56.448Z,10.58
2023-03-20T14:57:11.431Z,10.49
2023-03-20T14:58:33.993Z,10.40